Time,TemperatureF,DewpointF,PressureIn,WindDirection,WindDirectionDegrees,WindSpeedMPH,WindSpeedGustMPH,Humidity,HourlyPrecipIn,Conditions,Clouds,dailyrainin,SoftwareType,DateUTC
2013-03-27 00:00:00,38.7,9.9,23.36,NNE,31,0.0,0.0,30,0.00,,,0.00,WeatherTracker,2013-03-27 07:00:00,
2013-03-27 00:10:00,38.1,9.5,23.36,NNE,31,0.0,0.0,30,0.00,,,0.00,WeatherTracker,2013-03-27 07:10:00,
2013-03-27 00:20:00,38.1,9.5,23.36,NNE,31,0.0,0.0,30,0.00,,,0.00,WeatherTracker,2013-03-27 07:20:00,
2013-03-27 00:30:00,38.3,8.9,23.36,NNE,31,0.0,0.0,29,0.00,,,0.00,WeatherTracker,2013-03-27 07:30:00,
2013-03-27 00:40:00,38.8,9.3,23.36,NNE,31,0.0,0.0,29,0.00,,,0.00,WeatherTracker,2013-03-27 07:40:00,
2013-03-27 00:50:00,38.5,9.0,23.36,NNE,31,0.0,0.0,29,0.00,,,0.00,WeatherTracker,2013-03-27 07:50:00,
2013-03-27 00:55:00,37.9,8.5,23.36,NNE,31,0.0,0.0,29,0.00,,,0.00,WeatherTracker,2013-03-27 07:55:00,
2013-03-27 01:00:00,37.4,8.1,23.36,NNE,31,0.0,0.0,29,0.00,,,0.00,WeatherTracker,2013-03-27 08:00:00,
2013-03-27 01:05:00,37.0,8.5,23.36,NNE,31,0.0,0.0,30,0.00,,,0.00,WeatherTracker,2013-03-27 08:05:00,
2013-03-27 01:15:00,36.7,8.2,23.36,NNE,31,0.0,0.0,30,0.00,,,0.00,WeatherTracker,2013-03-27 08:15:00,
2013-03-27 01:25:00,36.5,8.0,23.36,NNE,31,0.0,0.0,30,0.00,,,0.00,WeatherTracker,2013-03-27 08:25:00,
2013-03-27 01:30:00,36.3,8.6,23.36,NNE,31,0.0,0.0,31,0.00,,,0.00,WeatherTracker,2013-03-27 08:30:00,
2013-03-27 01:35:00,36.1,8.5,23.36,NNE,31,0.0,0.0,31,0.00,,,0.00,WeatherTracker,2013-03-27 08:35:00,
2013-03-27 01:40:00,36.0,8.3,23.36,NNE,31,0.0,0.0,31,0.00,,,0.00,WeatherTracker,2013-03-27 08:40:00,
2013-03-27 01:50:00,36.3,7.9,23.36,NNE,31,0.0,0.0,30,0.00,,,0.00,WeatherTracker,2013-03-27 08:50:00,
2013-03-27 02:00:00,36.7,8.2,23.36,NNE,31,0.0,0.0,30,0.00,,,0.00,WeatherTracker,2013-03-27 09:00:00,
2013-03-27 02:05:00,36.9,8.4,23.36,NNE,31,0.0,0.0,30,0.00,,,0.00,WeatherTracker,2013-03-27 09:05:00,
2013-03-27 02:10:00,37.0,8.5,23.36,NNE,18,0.0,0.0,30,0.00,,,0.00,WeatherTracker,2013-03-27 09:10:00,
2013-03-27 02:15:00,37.2,8.7,23.36,NNE,18,0.0,0.0,30,0.00,,,0.00,WeatherTracker,2013-03-27 09:15:00,
2013-03-27 02:25:00,36.9,8.4,23.36,NNE,18,0.0,0.0,30,0.00,,,0.00,WeatherTracker,2013-03-27 09:25:00,
2013-03-27 02:30:00,36.5,8.0,23.36,NNE,19,0.0,0.0,30,0.00,,,0.00,WeatherTracker,2013-03-27 09:30:00,
2013-03-27 02:40:00,36.0,7.6,23.36,SW,224,0.0,0.0,30,0.00,,,0.00,WeatherTracker,2013-03-27 09:40:00,
2013-03-27 02:45:00,36.0,7.6,23.36,WSW,241,0.0,0.0,30,0.00,,,0.00,WeatherTracker,2013-03-27 09:45:00,
2013-03-27 02:50:00,36.0,7.6,23.36,WSW,241,0.0,0.0,30,0.00,,,0.00,WeatherTracker,2013-03-27 09:50:00,
2013-03-27 02:55:00,35.8,7.4,23.36,WSW,241,0.0,0.0,30,0.00,,,0.00,WeatherTracker,2013-03-27 09:55:00,
2013-03-27 03:00:00,36.0,7.6,23.36,WSW,240,0.0,0.0,30,0.00,,,0.00,WeatherTracker,2013-03-27 10:00:00,
2013-03-27 03:05:00,36.0,7.6,23.36,WSW,240,0.0,0.0,30,0.00,,,0.00,WeatherTracker,2013-03-27 10:05:00,
2013-03-27 03:15:00,36.1,7.7,23.36,WSW,240,0.0,0.0,30,0.00,,,0.00,WeatherTracker,2013-03-27 10:15:00,
2013-03-27 03:25:00,36.3,7.9,23.36,WSW,241,0.0,0.0,30,0.00,,,0.00,WeatherTracker,2013-03-27 10:25:00,
2013-03-27 03:35:00,36.7,8.2,23.36,WSW,241,0.0,0.0,30,0.00,,,0.00,WeatherTracker,2013-03-27 10:35:00,
2013-03-27 03:40:00,36.5,8.0,23.36,WSW,241,0.0,0.0,30,0.00,,,0.00,WeatherTracker,2013-03-27 10:40:00,
2013-03-27 03:50:00,35.6,8.0,23.33,WSW,241,0.0,0.0,31,0.00,,,0.00,WeatherTracker,2013-03-27 10:50:00,
2013-03-27 04:00:00,34.9,8.1,23.36,WSW,241,0.0,0.0,32,0.00,,,0.00,WeatherTracker,2013-03-27 11:00:00,
2013-03-27 04:10:00,34.5,7.7,23.36,WSW,241,0.0,0.0,32,0.00,,,0.00,WeatherTracker,2013-03-27 11:10:00,
2013-03-27 04:15:00,34.3,7.6,23.36,WSW,241,0.0,0.0,32,0.00,,,0.00,WeatherTracker,2013-03-27 11:15:00,
2013-03-27 04:25:00,33.3,7.3,23.36,WSW,241,0.0,0.0,33,0.00,,,0.00,WeatherTracker,2013-03-27 11:25:00,
2013-03-27 04:30:00,32.9,7.0,23.36,WSW,241,0.0,0.0,33,0.00,,,0.00,WeatherTracker,2013-03-27 11:30:00,
2013-03-27 04:35:00,32.5,6.7,23.36,WSW,241,0.0,0.0,33,0.00,,,0.00,WeatherTracker,2013-03-27 11:35:00,
2013-03-27 04:45:00,31.5,6.4,23.36,WSW,241,0.0,0.0,34,0.00,,,0.00,WeatherTracker,2013-03-27 11:45:00,
2013-03-27 04:50:00,30.9,6.5,23.36,WSW,241,0.0,0.0,35,0.00,,,0.00,WeatherTracker,2013-03-27 11:50:00,
2013-03-27 04:55:00,30.7,6.4,23.36,WSW,241,0.0,0.0,35,0.00,,,0.00,WeatherTracker,2013-03-27 11:55:00,
2013-03-27 05:00:00,30.7,6.4,23.36,WSW,241,0.0,0.0,35,0.00,,,0.00,WeatherTracker,2013-03-27 12:00:00,
2013-03-27 05:10:00,30.9,7.1,23.36,WSW,241,0.0,0.0,36,0.00,,,0.00,WeatherTracker,2013-03-27 12:10:00,
2013-03-27 05:15:00,31.1,7.3,23.36,WSW,241,0.0,0.0,36,0.00,,,0.00,WeatherTracker,2013-03-27 12:15:00,
2013-03-27 05:20:00,31.3,7.5,23.36,WSW,241,0.0,0.0,36,0.00,,,0.00,WeatherTracker,2013-03-27 12:20:00,
2013-03-27 05:30:00,30.2,7.1,23.36,WSW,241,0.0,0.0,37,0.00,,,0.00,WeatherTracker,2013-03-27 12:30:00,
2013-03-27 05:35:00,30.0,8.1,23.36,WSW,241,0.0,0.0,39,0.00,,,0.00,WeatherTracker,2013-03-27 12:35:00,
2013-03-27 05:45:00,30.0,8.1,23.36,WSW,241,0.0,0.0,39,0.00,,,0.00,WeatherTracker,2013-03-27 12:45:00,
2013-03-27 05:55:00,29.7,8.3,23.36,WSW,241,0.0,0.0,40,0.00,,,0.00,WeatherTracker,2013-03-27 12:55:00,
2013-03-27 06:00:00,29.5,8.2,23.36,WSW,241,0.0,0.0,40,0.00,,,0.00,WeatherTracker,2013-03-27 13:00:00,
2013-03-27 06:10:00,29.3,8.6,23.36,WSW,241,0.0,0.0,41,0.00,,,0.00,WeatherTracker,2013-03-27 13:10:00,
2013-03-27 06:20:00,29.7,8.9,23.36,WSW,241,0.0,0.0,41,0.00,,,0.00,WeatherTracker,2013-03-27 13:20:00,
2013-03-27 06:30:00,29.7,8.9,23.39,WSW,241,0.0,0.0,41,0.00,,,0.00,WeatherTracker,2013-03-27 13:30:00,
2013-03-27 06:35:00,29.7,8.9,23.39,WSW,241,0.0,0.0,41,0.00,,,0.00,WeatherTracker,2013-03-27 13:35:00,
2013-03-27 06:40:00,29.7,8.9,23.39,WSW,241,0.0,0.0,41,0.00,,,0.00,WeatherTracker,2013-03-27 13:40:00,
2013-03-27 06:45:00,29.7,8.9,23.39,WSW,240,0.0,0.0,41,0.00,,,0.00,WeatherTracker,2013-03-27 13:45:00,
2013-03-27 06:55:00,29.8,9.0,23.39,WSW,241,0.0,0.0,41,0.00,,,0.00,WeatherTracker,2013-03-27 13:55:00,
2013-03-27 07:05:00,30.2,9.4,23.39,WSW,241,0.0,0.0,41,0.00,,,0.00,WeatherTracker,2013-03-27 14:05:00,
2013-03-27 07:10:00,30.2,9.4,23.39,WSW,241,0.0,0.0,41,0.00,,,0.00,WeatherTracker,2013-03-27 14:10:00,
2013-03-27 07:15:00,30.4,9.5,23.39,WSW,241,0.0,0.0,41,0.00,,,0.00,WeatherTracker,2013-03-27 14:15:00,
2013-03-27 07:25:00,31.1,10.2,23.39,WSW,241,0.0,0.0,41,0.00,,,0.00,WeatherTracker,2013-03-27 14:25:00,
2013-03-27 07:30:00,31.5,10.5,23.42,WSW,241,0.0,0.0,41,0.00,,,0.00,WeatherTracker,2013-03-27 14:30:00,
2013-03-27 07:40:00,32.2,11.2,23.42,WSW,240,0.0,0.0,41,0.00,,,0.00,WeatherTracker,2013-03-27 14:40:00,
2013-03-27 07:45:00,32.7,11.6,23.42,WSW,241,0.0,0.0,41,0.00,,,0.00,WeatherTracker,2013-03-27 14:45:00,
2013-03-27 07:50:00,33.3,12.1,23.42,WSW,241,0.0,0.0,41,0.00,,,0.00,WeatherTracker,2013-03-27 14:50:00,
2013-03-27 08:00:00,34.5,12.7,23.42,WSW,241,0.0,0.0,40,0.00,,,0.00,WeatherTracker,2013-03-27 15:00:00,
2013-03-27 08:05:00,35.1,13.2,23.42,WSW,241,0.0,0.0,40,0.00,,,0.00,WeatherTracker,2013-03-27 15:05:00,
2013-03-27 08:15:00,36.7,14.7,23.42,WSW,241,0.0,0.0,40,0.00,,,0.00,WeatherTracker,2013-03-27 15:15:00,
2013-03-27 08:20:00,37.8,14.5,23.42,WSW,241,0.0,0.0,38,0.00,,,0.00,WeatherTracker,2013-03-27 15:20:00,
2013-03-27 08:30:00,39.7,15.0,23.42,WSW,241,0.0,0.0,36,0.00,,,0.00,WeatherTracker,2013-03-27 15:30:00,
2013-03-27 08:40:00,41.7,14.1,23.42,SE,145,0.0,0.0,32,0.00,,,0.00,WeatherTracker,2013-03-27 15:40:00,
2013-03-27 08:50:00,43.9,13.7,23.42,SE,130,0.0,0.0,29,0.00,,,0.00,WeatherTracker,2013-03-27 15:50:00,
2013-03-27 09:00:00,45.3,15.0,23.42,SE,130,0.0,0.0,29,0.00,,,0.00,WeatherTracker,2013-03-27 16:00:00,
2013-03-27 09:05:00,45.9,14.6,23.42,ESE,123,0.0,0.0,28,0.00,,,0.00,WeatherTracker,2013-03-27 16:05:00,
2013-03-27 09:15:00,46.9,14.7,23.42,ESE,123,0.0,0.0,27,0.00,,,0.00,WeatherTracker,2013-03-27 16:15:00,
2013-03-27 09:20:00,47.8,15.5,23.42,SE,127,2.0,3.0,27,0.00,,,0.00,WeatherTracker,2013-03-27 16:20:00,
2013-03-27 09:25:00,48.9,13.7,23.42,North,353,0.0,0.0,24,0.00,,,0.00,WeatherTracker,2013-03-27 16:25:00,
2013-03-27 09:35:00,50.7,12.2,23.42,SE,131,3.0,4.0,21,0.00,,,0.00,WeatherTracker,2013-03-27 16:35:00,
2013-03-27 09:40:00,51.6,13.0,23.42,SE,132,0.0,3.0,21,0.00,,,0.00,WeatherTracker,2013-03-27 16:40:00,
2013-03-27 09:50:00,52.5,10.3,23.42,SE,128,0.0,0.0,18,0.00,,,0.00,WeatherTracker,2013-03-27 16:50:00,
2013-03-27 09:55:00,53.1,14.2,23.42,ESE,109,0.0,0.0,21,0.00,,,0.00,WeatherTracker,2013-03-27 16:55:00,
2013-03-27 10:05:00,54.5,11.9,23.42,SE,138,4.0,4.0,18,0.00,,,0.00,WeatherTracker,2013-03-27 17:05:00,
2013-03-27 10:10:00,55.0,12.3,23.42,SE,136,0.0,3.0,18,0.00,,,0.00,WeatherTracker,2013-03-27 17:10:00,
2013-03-27 10:15:00,55.4,8.5,23.42,West,266,0.0,0.0,15,0.00,,,0.00,WeatherTracker,2013-03-27 17:15:00,
2013-03-27 10:25:00,56.7,9.6,23.42,ESE,112,4.0,4.0,15,0.00,,,0.00,WeatherTracker,2013-03-27 17:25:00,
2013-03-27 10:35:00,57.7,8.9,23.42,SSW,192,0.0,0.0,14,0.00,,,0.00,WeatherTracker,2013-03-27 17:35:00,
2013-03-27 10:40:00,57.9,9.0,23.42,SE,140,0.0,0.0,14,0.00,,,0.00,WeatherTracker,2013-03-27 17:40:00,
2013-03-27 10:45:00,57.7,8.9,23.42,SSE,150,0.0,0.0,14,0.00,,,0.00,WeatherTracker,2013-03-27 17:45:00,
2013-03-27 10:55:00,58.1,9.2,23.42,SE,125,0.0,0.0,14,0.00,,,0.00,WeatherTracker,2013-03-27 17:55:00,
2013-03-27 11:00:00,58.3,9.3,23.42,SE,144,0.0,0.0,14,0.00,,,0.00,WeatherTracker,2013-03-27 18:00:00,
2013-03-27 11:10:00,58.8,9.7,23.42,SE,128,4.0,4.0,14,0.00,,,0.00,WeatherTracker,2013-03-27 18:10:00,
2013-03-27 11:15:00,59.0,9.9,23.42,ESE,120,4.0,5.0,14,0.00,,,0.00,WeatherTracker,2013-03-27 18:15:00,
2013-03-27 11:25:00,59.0,9.9,23.42,ESE,110,4.0,5.0,14,0.00,,,0.00,WeatherTracker,2013-03-27 18:25:00,
2013-03-27 11:35:00,59.2,6.6,23.42,SSE,152,3.0,3.0,12,0.00,,,0.00,WeatherTracker,2013-03-27 18:35:00,
2013-03-27 11:40:00,59.5,6.9,23.42,SSE,167,4.0,4.0,12,0.00,,,0.00,WeatherTracker,2013-03-27 18:40:00,
2013-03-27 11:45:00,60.1,10.7,23.39,ESE,113,5.0,6.0,14,0.00,,,0.00,WeatherTracker,2013-03-27 18:45:00,
2013-03-27 11:55:00,60.4,11.0,23.39,SE,126,2.0,4.0,14,0.00,,,0.00,WeatherTracker,2013-03-27 18:55:00,
2013-03-27 12:05:00,60.8,6.0,23.42,ESE,117,4.0,6.0,11,0.00,,,0.00,WeatherTracker,2013-03-27 19:05:00,
2013-03-27 12:10:00,60.6,7.8,23.42,ESE,113,5.0,5.0,12,0.00,,,0.00,WeatherTracker,2013-03-27 19:10:00,
2013-03-27 12:20:00,61.2,6.3,23.42,East,97,3.0,3.0,11,0.00,,,0.00,WeatherTracker,2013-03-27 19:20:00,
2013-03-27 12:30:00,61.0,6.1,23.42,East,88,3.0,4.0,11,0.00,,,0.00,WeatherTracker,2013-03-27 19:30:00,
2013-03-27 12:35:00,61.3,6.4,23.42,SE,135,4.0,6.0,11,0.00,,,0.00,WeatherTracker,2013-03-27 19:35:00,
2013-03-27 12:45:00,61.9,6.8,23.42,East,101,4.0,6.0,11,0.00,,,0.00,WeatherTracker,2013-03-27 19:45:00,
2013-03-27 12:50:00,62.1,7.0,23.42,ENE,61,3.0,0.0,11,0.00,,,0.00,WeatherTracker,2013-03-27 19:50:00,
2013-03-27 12:55:00,61.9,6.8,23.42,SSE,163,5.0,6.0,11,0.00,,,0.00,WeatherTracker,2013-03-27 19:55:00,
2013-03-27 13:05:00,62.1,7.0,23.39,SSE,162,4.0,4.0,11,0.00,,,0.00,WeatherTracker,2013-03-27 20:05:00,
2013-03-27 13:10:00,62.2,7.1,23.39,North,353,3.0,3.0,11,0.00,,,0.00,WeatherTracker,2013-03-27 20:10:00,
2013-03-27 13:20:00,61.7,6.7,23.39,East,89,3.0,4.0,11,0.00,,,0.00,WeatherTracker,2013-03-27 20:20:00,
2013-03-27 13:30:00,61.3,6.4,23.39,SSE,159,3.0,4.0,11,0.00,,,0.00,WeatherTracker,2013-03-27 20:30:00,
2013-03-27 13:40:00,61.5,6.5,23.39,SSE,154,4.0,4.0,11,0.00,,,0.00,WeatherTracker,2013-03-27 20:40:00,
2013-03-27 13:45:00,61.3,6.4,23.39,South,178,4.0,4.0,11,0.00,,,0.00,WeatherTracker,2013-03-27 20:45:00,
2013-03-27 13:55:00,61.3,6.4,23.39,SE,124,4.0,5.0,11,0.00,,,0.00,WeatherTracker,2013-03-27 20:55:00,
2013-03-27 14:05:00,60.8,6.0,23.39,ESE,112,3.0,3.0,11,0.00,,,0.00,WeatherTracker,2013-03-27 21:05:00,
2013-03-27 14:10:00,60.4,7.6,23.39,SSE,160,0.0,0.0,12,0.00,,,0.00,WeatherTracker,2013-03-27 21:10:00,
2013-03-27 14:20:00,60.1,7.3,23.39,East,90,3.0,5.0,12,0.00,,,0.00,WeatherTracker,2013-03-27 21:20:00,
2013-03-27 14:30:00,60.4,7.6,23.39,SE,127,3.0,5.0,12,0.00,,,0.00,WeatherTracker,2013-03-27 21:30:00,
2013-03-27 14:40:00,60.1,7.3,23.39,ESE,117,0.0,0.0,12,0.00,,,0.00,WeatherTracker,2013-03-27 21:40:00,
2013-03-27 14:45:00,60.1,7.3,23.39,East,99,4.0,4.0,12,0.00,,,0.00,WeatherTracker,2013-03-27 21:45:00,
2013-03-27 14:50:00,59.7,7.0,23.39,East,95,3.0,3.0,12,0.00,,,0.00,WeatherTracker,2013-03-27 21:50:00,
2013-03-27 15:00:00,59.0,6.5,23.39,SE,130,3.0,4.0,12,0.00,,,0.00,WeatherTracker,2013-03-27 22:00:00,
2013-03-27 15:05:00,58.8,6.3,23.39,SE,127,0.0,0.0,12,0.00,,,0.00,WeatherTracker,2013-03-27 22:05:00,
2013-03-27 15:15:00,58.6,6.2,23.39,ESE,103,3.0,3.0,12,0.00,,,0.00,WeatherTracker,2013-03-27 22:15:00,
2013-03-27 15:25:00,58.5,6.1,23.39,ESE,118,3.0,5.0,12,0.00,,,0.00,WeatherTracker,2013-03-27 22:25:00,
2013-03-27 15:30:00,58.5,6.1,23.39,SE,143,0.0,0.0,12,0.00,,,0.00,WeatherTracker,2013-03-27 22:30:00,
2013-03-27 15:40:00,58.5,6.1,23.39,ESE,119,0.0,0.0,12,0.00,,,0.00,WeatherTracker,2013-03-27 22:40:00,
2013-03-27 15:45:00,58.6,6.2,23.39,SE,125,0.0,0.0,12,0.00,,,0.00,WeatherTracker,2013-03-27 22:45:00,
2013-03-27 15:50:00,58.5,6.1,23.39,ESE,114,0.0,0.0,12,0.00,,,0.00,WeatherTracker,2013-03-27 22:50:00,
2013-03-27 15:55:00,58.1,5.8,23.39,East,88,0.0,0.0,12,0.00,,,0.00,WeatherTracker,2013-03-27 22:55:00,
2013-03-27 16:00:00,57.7,5.5,23.39,East,98,0.0,0.0,12,0.00,,,0.00,WeatherTracker,2013-03-27 23:00:00,
2013-03-27 16:10:00,57.6,5.4,23.39,SE,141,0.0,0.0,12,0.00,,,0.00,WeatherTracker,2013-03-27 23:10:00,
2013-03-27 16:15:00,57.6,5.4,23.39,WNW,287,0.0,0.0,12,0.00,,,0.00,WeatherTracker,2013-03-27 23:15:00,
2013-03-27 16:25:00,57.2,5.1,23.39,NE,37,0.0,0.0,12,0.00,,,0.00,WeatherTracker,2013-03-27 23:25:00,
2013-03-27 16:35:00,57.0,4.9,23.39,SE,135,0.0,0.0,12,0.00,,,0.00,WeatherTracker,2013-03-27 23:35:00,
2013-03-27 16:40:00,56.8,4.8,23.39,ESE,107,0.0,0.0,12,0.00,,,0.00,WeatherTracker,2013-03-27 23:40:00,
2013-03-27 16:45:00,56.7,4.7,23.39,ESE,106,0.0,0.0,12,0.00,,,0.00,WeatherTracker,2013-03-27 23:45:00,
2013-03-27 16:55:00,56.5,4.5,23.39,ESE,111,0.0,0.0,12,0.00,,,0.00,WeatherTracker,2013-03-27 23:55:00,
2013-03-27 17:05:00,56.3,4.4,23.39,ESE,117,0.0,0.0,12,0.00,,,0.00,WeatherTracker,2013-03-28 00:05:00,
2013-03-27 17:10:00,56.3,4.4,23.39,ESE,123,0.0,0.0,12,0.00,,,0.00,WeatherTracker,2013-03-28 00:10:00,
2013-03-27 17:20:00,56.1,4.2,23.39,South,185,0.0,0.0,12,0.00,,,0.00,WeatherTracker,2013-03-28 00:20:00,
2013-03-27 17:30:00,55.8,3.9,23.39,East,94,0.0,4.0,12,0.00,,,0.00,WeatherTracker,2013-03-28 00:30:00,
2013-03-27 17:35:00,55.4,3.7,23.39,SW,214,3.0,4.0,12,0.00,,,0.00,WeatherTracker,2013-03-28 00:35:00,
2013-03-27 17:40:00,55.0,5.1,23.39,SSE,159,3.0,5.0,13,0.00,,,0.00,WeatherTracker,2013-03-28 00:40:00,
2013-03-27 17:45:00,54.7,4.8,23.39,SE,127,4.0,4.0,13,0.00,,,0.00,WeatherTracker,2013-03-28 00:45:00,
2013-03-27 17:50:00,54.5,4.7,23.39,SSE,156,2.0,3.0,13,0.00,,,0.00,WeatherTracker,2013-03-28 00:50:00,
2013-03-27 18:00:00,53.8,4.1,23.39,East,94,2.0,4.0,13,0.00,,,0.00,WeatherTracker,2013-03-28 01:00:00,
2013-03-27 18:10:00,53.4,3.8,23.39,SE,131,0.0,0.0,13,0.00,,,0.00,WeatherTracker,2013-03-28 01:10:00,
2013-03-27 18:15:00,53.1,3.6,23.42,ESE,112,0.0,0.0,13,0.00,,,0.00,WeatherTracker,2013-03-28 01:15:00,
2013-03-27 18:20:00,52.9,3.4,23.42,ESE,116,0.0,4.0,13,0.00,,,0.00,WeatherTracker,2013-03-28 01:20:00,
2013-03-27 18:25:00,52.7,3.3,23.42,SE,125,0.0,0.0,13,0.00,,,0.00,WeatherTracker,2013-03-28 01:25:00,
2013-03-27 18:30:00,52.5,3.1,23.42,East,101,0.0,3.0,13,0.00,,,0.00,WeatherTracker,2013-03-28 01:30:00,
2013-03-27 18:35:00,52.2,2.8,23.42,East,101,0.0,0.0,13,0.00,,,0.00,WeatherTracker,2013-03-28 01:35:00,
2013-03-27 18:45:00,51.4,3.9,23.42,East,98,0.0,0.0,14,0.00,,,0.00,WeatherTracker,2013-03-28 01:45:00,
2013-03-27 18:55:00,50.5,3.1,23.42,East,98,0.0,0.0,14,0.00,,,0.00,WeatherTracker,2013-03-28 01:55:00,
2013-03-27 19:05:00,49.8,2.6,23.42,East,98,0.0,0.0,14,0.00,,,0.00,WeatherTracker,2013-03-28 02:05:00,
2013-03-27 19:10:00,49.6,2.4,23.42,East,98,0.0,0.0,14,0.00,,,0.00,WeatherTracker,2013-03-28 02:10:00,
2013-03-27 19:20:00,49.1,2.0,23.42,East,98,0.0,0.0,14,0.00,,,0.00,WeatherTracker,2013-03-28 02:20:00,
2013-03-27 19:30:00,48.9,1.9,23.42,East,101,0.0,0.0,14,0.00,,,0.00,WeatherTracker,2013-03-28 02:30:00,
2013-03-27 19:40:00,48.7,1.7,23.42,ESE,109,0.0,0.0,14,0.00,,,0.00,WeatherTracker,2013-03-28 02:40:00,
2013-03-27 19:50:00,48.4,1.4,23.42,East,93,0.0,0.0,14,0.00,,,0.00,WeatherTracker,2013-03-28 02:50:00,
2013-03-27 19:55:00,48.4,1.4,23.42,East,89,0.0,0.0,14,0.00,,,0.00,WeatherTracker,2013-03-28 02:55:00,
2013-03-27 20:05:00,48.0,1.1,23.42,East,92,0.0,0.0,14,0.00,,,0.00,WeatherTracker,2013-03-28 03:05:00,
2013-03-27 20:10:00,47.8,1.0,23.42,East,92,0.0,0.0,14,0.00,,,0.00,WeatherTracker,2013-03-28 03:10:00,
2013-03-27 20:15:00,47.5,0.7,23.42,East,90,0.0,0.0,14,0.00,,,0.00,WeatherTracker,2013-03-28 03:15:00,
2013-03-27 20:25:00,46.9,0.3,23.42,East,89,0.0,0.0,14,0.00,,,0.00,WeatherTracker,2013-03-28 03:25:00,
2013-03-27 20:30:00,46.4,-0.2,23.42,East,90,0.0,0.0,14,0.00,,,0.00,WeatherTracker,2013-03-28 03:30:00,
2013-03-27 20:40:00,46.0,1.0,23.42,East,90,0.0,0.0,15,0.00,,,0.00,WeatherTracker,2013-03-28 03:40:00,
2013-03-27 20:45:00,45.9,0.9,23.42,East,90,0.0,0.0,15,0.00,,,0.00,WeatherTracker,2013-03-28 03:45:00,
2013-03-27 20:55:00,45.3,0.4,23.42,East,90,0.0,0.0,15,0.00,,,0.00,WeatherTracker,2013-03-28 03:55:00,
2013-03-27 21:00:00,45.1,0.3,23.42,East,90,0.0,0.0,15,0.00,,,0.00,WeatherTracker,2013-03-28 04:00:00,
2013-03-27 21:05:00,44.8,0.0,23.42,East,89,0.0,0.0,15,0.00,,,0.00,WeatherTracker,2013-03-28 04:05:00,
2013-03-27 21:10:00,44.4,-0.3,23.42,East,89,0.0,0.0,15,0.00,,,0.00,WeatherTracker,2013-03-28 04:10:00,
2013-03-27 21:15:00,44.1,3.3,23.45,East,89,0.0,0.0,18,0.00,,,0.00,WeatherTracker,2013-03-28 04:15:00,
2013-03-27 21:20:00,43.7,3.0,23.45,East,86,0.0,0.0,18,0.00,,,0.00,WeatherTracker,2013-03-28 04:20:00,
2013-03-27 21:30:00,43.3,2.7,23.45,East,86,0.0,0.0,18,0.00,,,0.00,WeatherTracker,2013-03-28 04:30:00,
2013-03-27 21:40:00,43.0,2.4,23.45,East,86,0.0,0.0,18,0.00,,,0.00,WeatherTracker,2013-03-28 04:40:00,
2013-03-27 21:50:00,42.8,2.3,23.45,East,85,0.0,0.0,18,0.00,,,0.00,WeatherTracker,2013-03-28 04:50:00,
2013-03-27 22:00:00,42.6,2.1,23.45,East,85,0.0,0.0,18,0.00,,,0.00,WeatherTracker,2013-03-28 05:00:00,
2013-03-27 22:05:00,42.4,2.0,23.45,East,85,0.0,0.0,18,0.00,,,0.00,WeatherTracker,2013-03-28 05:05:00,
2013-03-27 22:15:00,42.3,1.8,23.45,East,85,0.0,0.0,18,0.00,,,0.00,WeatherTracker,2013-03-28 05:15:00,
2013-03-27 22:20:00,42.1,5.0,23.45,East,85,0.0,0.0,21,0.00,,,0.00,WeatherTracker,2013-03-28 05:20:00,
2013-03-27 22:25:00,41.9,4.8,23.45,East,85,0.0,0.0,21,0.00,,,0.00,WeatherTracker,2013-03-28 05:25:00,
2013-03-27 22:35:00,41.5,4.5,23.45,East,85,0.0,0.0,21,0.00,,,0.00,WeatherTracker,2013-03-28 05:35:00,
2013-03-27 22:45:00,41.2,4.2,23.45,East,85,0.0,0.0,21,0.00,,,0.00,WeatherTracker,2013-03-28 05:45:00,
2013-03-27 22:50:00,41.2,6.2,23.45,East,85,0.0,0.0,23,0.00,,,0.00,WeatherTracker,2013-03-28 05:50:00,
2013-03-27 22:55:00,41.2,6.2,23.45,East,85,0.0,0.0,23,0.00,,,0.00,WeatherTracker,2013-03-28 05:55:00,
2013-03-27 23:00:00,41.0,6.1,23.45,East,85,0.0,0.0,23,0.00,,,0.00,WeatherTracker,2013-03-28 06:00:00,
2013-03-27 23:05:00,40.8,5.9,23.45,East,85,0.0,0.0,23,0.00,,,0.00,WeatherTracker,2013-03-28 06:05:00,
2013-03-27 23:10:00,40.6,5.8,23.45,East,85,0.0,0.0,23,0.00,,,0.00,WeatherTracker,2013-03-28 06:10:00,
2013-03-27 23:15:00,40.5,5.6,23.45,East,85,0.0,0.0,23,0.00,,,0.00,WeatherTracker,2013-03-28 06:15:00,
2013-03-27 23:25:00,40.3,8.2,23.45,East,85,0.0,0.0,26,0.00,,,0.00,WeatherTracker,2013-03-28 06:25:00,
2013-03-27 23:35:00,40.1,8.0,23.45,East,85,0.0,0.0,26,0.00,,,0.00,WeatherTracker,2013-03-28 06:35:00,
2013-03-27 23:40:00,40.1,9.6,23.45,East,85,0.0,0.0,28,0.00,,,0.00,WeatherTracker,2013-03-28 06:40:00,
2013-03-27 23:45:00,39.9,9.5,23.45,East,85,0.0,0.0,28,0.00,,,0.00,WeatherTracker,2013-03-28 06:45:00,
2013-03-27 23:55:00,39.7,9.3,23.45,East,85,0.0,0.0,28,0.00,,,0.00,WeatherTracker,2013-03-28 06:55:00,